createdAt,value
2022-10-21T00:00:12.775Z,10.17
2022-10-21T00:02:40.791Z,10.04
2022-10-21T00:05:09.108Z,10.17
2022-10-21T00:07:37.334Z,10.52
2022-10-21T00:10:07.862Z,10.27
2022-10-21T00:12:36.381Z,10.52
2022-10-21T00:15:05.643Z,10.42
2022-10-21T00:17:36.298Z,10.51
2022-10-21T00:20:04.918Z,10.49
2022-10-21T00:22:32.708Z,10.68
2022-10-21T00:25:00.475Z,10.29
2022-10-21T00:27:29.617Z,10.26
2022-10-21T00:29:57.341Z,10.52
2022-10-21T00:32:25.055Z,10.24
2022-10-21T00:34:52.798Z,10.19
2022-10-21T00:37:20.490Z,10.46
2022-10-21T00:39:48.217Z,10.45
2022-10-21T00:42:18.924Z,10.53
2022-10-21T00:47:45.162Z,10.64
2022-10-21T00:50:23.771Z,10.58
2022-10-21T00:52:51.928Z,10.43
2022-10-21T00:55:19.927Z,10.53
2022-10-21T00:57:47.801Z,10.38
2022-10-21T01:00:16.241Z,10.33
2022-10-21T01:02:46.412Z,10.52
2022-10-21T01:05:15.717Z,10.67
2022-10-21T01:07:43.958Z,10.40
2022-10-21T01:10:11.844Z,10.83
2022-10-21T01:12:50.706Z,10.93
2022-10-21T01:15:25.821Z,10.81
2022-10-21T01:18:03.001Z,10.70
2022-10-21T01:20:50.723Z,10.59
2022-10-21T01:23:52.836Z,10.38
2022-10-21T01:26:52.008Z,10.66
2022-10-21T01:29:41.150Z,10.54
2022-10-21T01:32:20.081Z,10.36
2022-10-21T01:34:57.168Z,10.39
2022-10-21T01:37:31.560Z,10.58
2022-10-21T01:40:07.060Z,10.26
2022-10-21T01:42:41.826Z,10.52
2022-10-21T01:45:18.155Z,10.43
2022-10-21T01:47:50.695Z,10.34
2022-10-21T01:50:22.903Z,10.39
2022-10-21T01:52:54.477Z,10.38
2022-10-21T01:55:25.885Z,10.32
2022-10-21T01:58:01.333Z,10.61
2022-10-21T02:00:30.436Z,10.53
2022-10-21T02:03:02.089Z,10.60
2022-10-21T02:05:33.107Z,10.70
2022-10-21T02:08:01.347Z,10.57
2022-10-21T02:10:34.720Z,11.06
2022-10-21T02:13:05.727Z,10.97
2022-10-21T02:15:34.689Z,10.76
2022-10-21T02:18:08.217Z,10.97
2022-10-21T02:20:38.486Z,11.18
2022-10-21T02:23:09.385Z,10.99
2022-10-21T02:25:41.574Z,10.79
2022-10-21T02:28:09.641Z,10.85
2022-10-21T02:30:46.698Z,10.93
2022-10-21T02:33:21.456Z,11.05
2022-10-21T02:36:02.175Z,10.84
2022-10-21T02:38:34.328Z,10.88
2022-10-21T02:41:03.671Z,10.71
2022-10-21T02:43:34.530Z,10.76
2022-10-21T02:46:08.046Z,10.64
2022-10-21T02:48:38.937Z,10.51
2022-10-21T02:51:08.978Z,10.96
2022-10-21T02:53:37.262Z,10.72
2022-10-21T02:56:05.427Z,10.34
2022-10-21T02:58:33.549Z,10.47
2022-10-21T03:01:01.592Z,10.40
2022-10-21T03:03:30.237Z,10.58
2022-10-21T03:05:59.446Z,10.52
2022-10-21T03:08:27.305Z,10.70
2022-10-21T03:10:55.502Z,10.53
2022-10-21T03:13:23.668Z,10.73
2022-10-21T03:15:51.488Z,10.66
2022-10-21T03:18:19.897Z,10.55
2022-10-21T03:20:50.872Z,10.39
2022-10-21T03:23:20.840Z,10.54
2022-10-21T03:25:48.759Z,10.73
2022-10-21T03:28:16.507Z,10.91
2022-10-21T03:30:44.249Z,10.90
2022-10-21T03:33:11.997Z,10.65
2022-10-21T03:35:39.720Z,10.58
2022-10-21T03:38:07.447Z,10.87
2022-10-21T03:40:36.526Z,11.11
2022-10-21T03:43:04.338Z,11.11
2022-10-21T03:45:32.239Z,10.91
2022-10-21T03:47:59.980Z,10.76
2022-10-21T03:50:27.706Z,10.84
2022-10-21T03:52:56.274Z,10.71
2022-10-21T03:55:25.260Z,10.56
2022-10-21T03:57:54.997Z,10.49
2022-10-21T04:00:24.347Z,10.60
2022-10-21T04:02:53.801Z,10.61
2022-10-21T04:05:21.492Z,10.82
2022-10-21T04:07:52.213Z,10.71
2022-10-21T04:10:21.212Z,10.87
2022-10-21T04:12:48.939Z,10.64
2022-10-21T04:15:18.496Z,10.95
2022-10-21T04:17:47.153Z,10.75
2022-10-21T04:20:15.249Z,10.97
2022-10-21T04:22:42.975Z,10.94
2022-10-21T04:25:11.118Z,11.08
2022-10-21T04:27:38.844Z,11.19
2022-10-21T04:30:07.929Z,10.84
2022-10-21T04:32:37.320Z,10.92
2022-10-21T04:35:06.018Z,10.98
2022-10-21T04:37:33.702Z,11.24
2022-10-21T04:40:01.389Z,11.89
2022-10-21T04:42:29.110Z,11.14
2022-10-21T04:44:56.812Z,11.07
2022-10-21T04:47:24.577Z,11.01
2022-10-21T04:49:53.646Z,11.63
2022-10-21T04:52:21.389Z,11.28
2022-10-21T04:54:49.088Z,11.44
2022-10-21T04:57:16.818Z,11.35
2022-10-21T04:59:44.512Z,10.99
2022-10-21T05:02:12.312Z,10.97
2022-10-21T05:04:40.135Z,11.16
2022-10-21T05:07:09.184Z,11.01
2022-10-21T05:09:36.949Z,11.45
2022-10-21T05:12:05.111Z,11.43
2022-10-21T05:14:32.925Z,10.90
2022-10-21T05:17:00.632Z,11.06
2022-10-21T05:19:31.257Z,11.04
2022-10-21T05:21:59.293Z,10.96
2022-10-21T05:24:28.740Z,10.48
2022-10-21T05:26:56.453Z,10.50
2022-10-21T05:29:24.142Z,10.57
2022-10-21T05:31:51.847Z,10.74
2022-10-21T05:34:19.617Z,10.89
2022-10-21T05:36:48.556Z,10.63
2022-10-21T05:39:16.405Z,10.60
2022-10-21T05:41:47.854Z,10.70
2022-10-21T05:44:16.388Z,10.67
2022-10-21T05:46:44.127Z,10.69
2022-10-21T05:49:12.835Z,10.53
2022-10-21T05:51:40.549Z,10.47
2022-10-21T05:54:08.319Z,10.73
2022-10-21T05:56:36.766Z,10.61
2022-10-21T05:59:07.930Z,10.80
2022-10-21T06:01:39.528Z,10.92
2022-10-21T06:04:07.857Z,11.13
2022-10-21T06:06:35.641Z,10.68
2022-10-21T06:09:03.553Z,10.79
2022-10-21T06:11:31.511Z,11.01
2022-10-21T06:13:59.294Z,11.65
2022-10-21T06:16:35.082Z,11.05
2022-10-21T06:19:03.520Z,10.78
2022-10-21T06:21:31.416Z,10.82
2022-10-21T06:23:59.156Z,10.60
2022-10-21T06:26:27.026Z,10.82
2022-10-21T06:28:55.175Z,11.08
2022-10-21T06:31:22.987Z,10.63
2022-10-21T06:33:52.061Z,10.70
2022-10-21T06:36:20.016Z,10.58
2022-10-21T06:38:47.738Z,10.42
2022-10-21T06:41:18.158Z,10.95
2022-10-21T06:43:46.249Z,10.36
2022-10-21T06:46:16.129Z,10.81
2022-10-21T06:48:43.908Z,10.80
2022-10-21T06:51:15.408Z,10.69
2022-10-21T06:53:44.183Z,10.90
2022-10-21T06:56:14.513Z,10.92
2022-10-21T06:58:43.397Z,11.21
2022-10-21T07:01:27.234Z,11.03
2022-10-21T07:04:01.140Z,11.42
2022-10-21T07:06:30.750Z,11.32
2022-10-21T07:08:59.276Z,11.59
2022-10-21T07:11:27.945Z,11.71
2022-10-21T07:13:55.889Z,11.47
2022-10-21T07:16:25.664Z,11.31
2022-10-21T07:18:54.267Z,11.63
2022-10-21T07:21:24.166Z,12.13
2022-10-21T07:23:56.612Z,12.05
2022-10-21T07:26:28.477Z,11.85
2022-10-21T07:28:58.134Z,11.75
2022-10-21T07:31:25.959Z,12.12
2022-10-21T07:33:54.542Z,12.51
2022-10-21T07:36:25.242Z,12.92
2022-10-21T07:38:55.907Z,13.34
2022-10-21T07:41:26.576Z,13.07
2022-10-21T07:43:55.047Z,13.39
2022-10-21T07:46:23.889Z,13.67
2022-10-21T07:48:52.266Z,13.27
2022-10-21T07:51:25.709Z,13.41
2022-10-21T07:53:58.753Z,13.60
2022-10-21T07:56:28.555Z,13.60
2022-10-21T07:58:56.420Z,13.49
2022-10-21T08:01:25.012Z,13.65
2022-10-21T08:03:54.153Z,13.69
2022-10-21T08:06:22.706Z,13.27
2022-10-21T08:08:50.437Z,13.25
2022-10-21T08:11:23.941Z,13.13
2022-10-21T08:13:51.716Z,14.14
2022-10-21T08:16:19.450Z,14.78
2022-10-21T08:18:47.648Z,15.45
2022-10-21T08:21:15.449Z,14.89
2022-10-21T08:23:43.332Z,14.59
2022-10-21T08:26:14.334Z,15.71
2022-10-21T08:28:44.223Z,15.68
2022-10-21T08:31:14.733Z,16.17
2022-10-21T08:33:42.538Z,16.15
2022-10-21T08:36:13.305Z,15.85
2022-10-21T08:38:41.033Z,16.76
2022-10-21T08:41:20.413Z,16.58
2022-10-21T08:43:51.077Z,15.65
2022-10-21T08:46:23.672Z,15.79
2022-10-21T08:48:57.356Z,16.16
2022-10-21T08:51:31.413Z,15.46
2022-10-21T08:54:05.018Z,15.23
2022-10-21T08:56:33.327Z,15.86
2022-10-21T08:59:02.476Z,15.38
2022-10-21T09:01:39.304Z,15.77
2022-10-21T09:04:14.495Z,16.72
2022-10-21T09:06:56.227Z,16.66
2022-10-21T09:09:31.448Z,16.18
2022-10-21T09:12:08.180Z,16.05
2022-10-21T09:14:49.138Z,16.25
2022-10-21T09:17:27.013Z,16.86
2022-10-21T09:20:01.386Z,16.39
2022-10-21T09:22:42.695Z,16.36
2022-10-21T09:25:24.030Z,15.49
2022-10-21T09:27:56.829Z,15.68
2022-10-21T09:30:27.156Z,15.57
2022-10-21T09:32:58.476Z,14.88
2022-10-21T09:35:35.034Z,15.03
2022-10-21T09:38:11.645Z,14.69
2022-10-21T09:40:39.477Z,15.02
2022-10-21T09:43:17.425Z,14.66
2022-10-21T09:45:47.965Z,14.59
2022-10-21T09:48:28.844Z,14.54
2022-10-21T09:51:01.003Z,14.35
2022-10-21T09:53:34.148Z,14.53
2022-10-21T09:56:05.735Z,14.35
2022-10-21T09:58:47.566Z,14.21
2022-10-21T10:01:20.705Z,14.42
2022-10-21T10:03:50.340Z,14.79
2022-10-21T10:06:34.021Z,14.86
2022-10-21T10:09:25.633Z,14.78
2022-10-21T10:11:56.543Z,14.42
2022-10-21T10:14:33.252Z,14.65
2022-10-21T10:17:26.587Z,14.70
2022-10-21T10:20:16.762Z,14.54
2022-10-21T10:22:45.232Z,14.98
2022-10-21T10:25:22.861Z,15.10
2022-10-21T10:27:52.881Z,16.09
2022-10-21T10:30:25.683Z,15.89
2022-10-21T10:32:57.362Z,16.54
2022-10-21T10:35:30.838Z,15.98
2022-10-21T10:38:00.188Z,16.59
2022-10-21T10:40:32.495Z,16.55
2022-10-21T10:43:04.806Z,16.30
2022-10-21T10:45:32.952Z,16.33
2022-10-21T10:48:04.682Z,17.26
2022-10-21T10:50:43.867Z,17.33
2022-10-21T10:53:33.032Z,17.41
2022-10-21T10:56:08.969Z,16.99
2022-10-21T10:58:42.660Z,16.53
2022-10-21T11:01:14.547Z,16.30
2022-10-21T11:03:51.168Z,17.54
2022-10-21T11:06:33.870Z,16.73
2022-10-21T11:09:03.382Z,16.77
2022-10-21T11:11:37.790Z,16.94
2022-10-21T11:14:10.224Z,16.60
2022-10-21T11:17:00.213Z,16.94
2022-10-21T11:19:43.903Z,16.29
2022-10-21T11:22:16.356Z,16.11
2022-10-21T11:24:59.643Z,16.07
2022-10-21T11:27:58.301Z,16.23
2022-10-21T11:30:37.030Z,17.35
2022-10-21T11:33:15.437Z,16.33
2022-10-21T11:35:55.418Z,15.94
2022-10-21T11:38:37.404Z,15.70
2022-10-21T11:41:19.872Z,15.79
2022-10-21T11:43:57.633Z,15.53
2022-10-21T11:46:30.392Z,15.97
2022-10-21T11:49:12.859Z,16.13
2022-10-21T11:51:54.307Z,15.78
2022-10-21T11:54:39.966Z,16.29
2022-10-21T11:57:19.294Z,16.13
2022-10-21T12:00:00.565Z,16.58
2022-10-21T12:05:08.493Z,16.28
2022-10-21T12:07:50.564Z,16.59
2022-10-21T12:10:30.412Z,16.98
2022-10-21T12:13:03.729Z,17.10
2022-10-21T12:15:41.458Z,16.97
2022-10-21T12:18:17.327Z,16.61
2022-10-21T12:20:50.634Z,16.10
2022-10-21T12:23:23.164Z,16.62
2022-10-21T12:26:06.500Z,16.24
2022-10-21T12:28:45.784Z,16.67
2022-10-21T12:31:28.553Z,16.59
2022-10-21T12:33:57.247Z,16.59
2022-10-21T12:36:46.710Z,16.28
2022-10-21T12:39:43.299Z,16.45
2022-10-21T12:42:14.696Z,16.79
2022-10-21T12:44:47.340Z,16.40
2022-10-21T12:47:29.985Z,16.11
2022-10-21T12:50:22.624Z,16.12
2022-10-21T12:53:06.192Z,16.15
2022-10-21T12:55:40.838Z,16.68
2022-10-21T12:58:31.754Z,16.58
2022-10-21T13:01:02.527Z,16.10
2022-10-21T13:03:52.158Z,16.41
2022-10-21T13:06:52.339Z,17.09
2022-10-21T13:09:37.186Z,17.00
2022-10-21T13:12:17.202Z,16.65
2022-10-21T13:14:47.126Z,16.24
2022-10-21T13:17:29.946Z,16.57
2022-10-21T13:20:18.500Z,16.60
2022-10-21T13:22:47.340Z,16.58
2022-10-21T13:25:23.067Z,16.64
2022-10-21T13:27:55.263Z,16.25
2022-10-21T13:30:28.880Z,16.15
2022-10-21T13:33:02.976Z,16.24
2022-10-21T13:35:36.729Z,16.48
2022-10-21T13:38:19.462Z,16.56
2022-10-21T13:40:50.413Z,16.35
2022-10-21T13:43:28.616Z,16.24
2022-10-21T13:46:05.818Z,16.36
2022-10-21T13:48:39.167Z,16.51
2022-10-21T13:51:15.774Z,16.52
2022-10-21T13:53:45.914Z,16.35
2022-10-21T13:56:22.285Z,16.57
2022-10-21T13:58:51.773Z,16.92
2022-10-21T14:01:21.971Z,16.40
2022-10-21T14:03:50.306Z,16.24
2022-10-21T14:06:26.377Z,16.09
2022-10-21T14:08:55.772Z,16.23
2022-10-21T14:11:28.558Z,16.25
2022-10-21T14:14:00.596Z,16.23
2022-10-21T14:16:33.144Z,16.08
2022-10-21T14:19:03.345Z,16.24
2022-10-21T14:21:37.456Z,15.95
2022-10-21T14:24:06.174Z,16.02
2022-10-21T14:26:34.774Z,16.01
2022-10-21T14:29:06.156Z,15.70
2022-10-21T14:31:34.197Z,16.07
2022-10-21T14:34:02.027Z,16.08
2022-10-21T14:36:31.941Z,16.27
2022-10-21T14:39:01.573Z,16.12
2022-10-21T14:41:33.609Z,16.20
2022-10-21T14:44:09.849Z,15.84
2022-10-21T14:46:42.826Z,15.92
2022-10-21T14:49:22.943Z,15.58
2022-10-21T14:51:52.079Z,15.77
2022-10-21T14:54:28.763Z,15.64
2022-10-21T14:56:57.910Z,15.80
2022-10-21T14:59:33.590Z,15.68
2022-10-21T15:02:02.388Z,15.66
2022-10-21T15:04:50.451Z,16.11
2022-10-21T15:10:20.474Z,16.43
2022-10-21T15:12:50.380Z,16.26
2022-10-21T15:15:44.462Z,16.17
2022-10-21T15:18:15.656Z,16.11
2022-10-21T15:20:58.288Z,16.40
2022-10-21T15:23:30.400Z,16.06
2022-10-21T15:26:01.344Z,15.92
2022-10-21T15:28:34.497Z,15.93
2022-10-21T15:31:05.635Z,15.75
2022-10-21T15:33:33.342Z,15.45
2022-10-21T15:36:02.101Z,15.42
2022-10-21T15:38:29.805Z,15.70
2022-10-21T15:40:57.572Z,15.68
2022-10-21T15:43:25.268Z,15.83
2022-10-21T15:45:53.031Z,15.73
2022-10-21T15:48:23.121Z,15.42
2022-10-21T15:50:50.836Z,15.39
2022-10-21T15:53:18.560Z,15.69
2022-10-21T15:55:46.245Z,15.32
2022-10-21T15:58:13.981Z,15.33
2022-10-21T16:00:41.830Z,15.57
2022-10-21T16:03:09.897Z,15.45
2022-10-21T16:05:39.564Z,15.63
2022-10-21T16:08:07.282Z,15.45
2022-10-21T16:10:37.410Z,15.27
2022-10-21T16:13:05.391Z,15.67
2022-10-21T16:15:33.099Z,15.75
2022-10-21T16:18:01.193Z,15.60
2022-10-21T16:20:30.599Z,15.59
2022-10-21T16:23:02.310Z,15.65
2022-10-21T16:25:31.125Z,15.53
2022-10-21T16:27:59.431Z,15.32
2022-10-21T16:30:29.248Z,15.19
2022-10-21T16:32:57.357Z,15.56
2022-10-21T16:35:25.855Z,14.98
2022-10-21T16:37:53.825Z,15.34
2022-10-21T16:40:25.700Z,15.09
2022-10-21T16:42:54.029Z,15.17
2022-10-21T16:45:24.586Z,15.16
2022-10-21T16:47:56.736Z,15.41
2022-10-21T16:50:30.814Z,15.39
2022-10-21T16:52:58.666Z,15.47
2022-10-21T16:55:27.968Z,15.51
2022-10-21T16:57:55.774Z,15.25
2022-10-21T17:00:23.637Z,15.11
2022-10-21T17:02:52.657Z,15.17
2022-10-21T17:05:20.626Z,15.04
2022-10-21T17:07:48.357Z,14.76
2022-10-21T17:10:16.487Z,14.84
2022-10-21T17:12:45.563Z,14.69
2022-10-21T17:15:17.014Z,14.85
2022-10-21T17:17:44.704Z,14.89
2022-10-21T17:20:12.663Z,14.97
2022-10-21T17:22:40.352Z,14.74
2022-10-21T17:25:08.761Z,14.63
2022-10-21T17:27:36.546Z,14.66
2022-10-21T17:30:06.778Z,14.72
2022-10-21T17:32:34.539Z,14.68
2022-10-21T17:35:02.335Z,14.70
2022-10-21T17:37:30.075Z,14.92
2022-10-21T17:39:57.876Z,14.82
2022-10-21T17:42:25.575Z,14.78
2022-10-21T17:44:53.264Z,14.75
2022-10-21T17:47:22.347Z,14.67
2022-10-21T17:49:50.147Z,14.54
2022-10-21T17:52:18.061Z,14.47
2022-10-21T17:54:45.748Z,14.81
2022-10-21T17:57:13.475Z,14.87
2022-10-21T17:59:41.140Z,14.86
2022-10-21T18:02:09.747Z,14.82
2022-10-21T18:04:39.261Z,14.92
2022-10-21T18:07:09.428Z,14.75
2022-10-21T18:09:38.216Z,14.80
2022-10-21T18:12:09.433Z,14.73
2022-10-21T18:14:37.658Z,14.59
2022-10-21T18:17:05.426Z,14.77
2022-10-21T18:19:33.858Z,14.62
2022-10-21T18:22:03.282Z,14.43
2022-10-21T18:24:31.374Z,14.89
2022-10-21T18:26:59.189Z,14.69
2022-10-21T18:29:27.079Z,14.46
2022-10-21T18:31:56.356Z,14.66
2022-10-21T18:34:24.116Z,14.45
2022-10-21T18:39:26.058Z,14.86
2022-10-21T18:41:54.209Z,14.54
2022-10-21T18:44:22.024Z,14.88
2022-10-21T18:46:52.399Z,15.21
2022-10-21T18:49:23.005Z,14.73
2022-10-21T18:51:50.685Z,14.85
2022-10-21T18:54:18.415Z,14.87
2022-10-21T18:56:47.589Z,14.89
2022-10-21T18:59:15.257Z,14.93
2022-10-21T19:01:43.166Z,15.15
2022-10-21T19:04:11.056Z,14.86
2022-10-21T19:06:40.861Z,15.20
2022-10-21T19:09:13.060Z,15.16
2022-10-21T19:11:41.143Z,15.38
2022-10-21T19:14:14.048Z,15.12
2022-10-21T19:16:42.872Z,15.01
2022-10-21T19:19:11.203Z,14.94
2022-10-21T19:21:39.559Z,14.74
2022-10-21T19:24:08.070Z,14.64
2022-10-21T19:26:38.970Z,15.15
2022-10-21T19:29:08.770Z,15.71
2022-10-21T19:31:38.752Z,15.66
2022-10-21T19:34:06.718Z,15.60
2022-10-21T19:36:34.661Z,15.70
2022-10-21T19:39:02.376Z,15.25
2022-10-21T19:41:30.106Z,15.41
2022-10-21T19:43:59.072Z,15.18
2022-10-21T19:46:28.392Z,15.35
2022-10-21T19:48:58.209Z,15.55
2022-10-21T19:51:26.504Z,14.95
2022-10-21T19:53:55.186Z,14.97
2022-10-21T19:56:26.853Z,14.85
2022-10-21T19:58:56.745Z,15.32
2022-10-21T20:01:26.578Z,15.09
2022-10-21T20:03:56.963Z,14.95
2022-10-21T20:06:27.508Z,14.93
2022-10-21T20:08:56.116Z,14.92
2022-10-21T20:11:23.956Z,15.14
2022-10-21T20:13:51.891Z,15.30
2022-10-21T20:16:21.600Z,14.96
2022-10-21T20:18:49.806Z,14.51
2022-10-21T20:21:19.470Z,14.84
2022-10-21T20:23:47.199Z,14.96
2022-10-21T20:26:14.908Z,15.15
2022-10-21T20:28:42.687Z,15.43
2022-10-21T20:31:12.331Z,15.39
2022-10-21T20:33:42.892Z,14.96
2022-10-21T20:36:14.569Z,15.16
2022-10-21T20:38:43.983Z,15.84
2022-10-21T20:41:13.819Z,15.74
2022-10-21T20:43:42.712Z,15.54
2022-10-21T20:46:12.434Z,15.67
2022-10-21T20:48:42.072Z,15.25
2022-10-21T20:51:12.019Z,15.52
2022-10-21T20:53:40.559Z,15.44
2022-10-21T20:56:09.881Z,15.86
2022-10-21T20:58:39.308Z,16.11
2022-10-21T21:01:08.281Z,16.19
2022-10-21T21:03:37.915Z,16.13
2022-10-21T21:06:05.925Z,16.53
2022-10-21T21:08:35.778Z,16.24
2022-10-21T21:11:03.970Z,16.29
2022-10-21T21:13:33.329Z,16.23
2022-10-21T21:16:06.216Z,16.29
2022-10-21T21:18:34.026Z,16.22
2022-10-21T21:21:06.321Z,16.54
2022-10-21T21:23:34.659Z,16.36
2022-10-21T21:26:03.685Z,16.46
2022-10-21T21:28:35.557Z,16.57
2022-10-21T21:31:04.366Z,16.39
2022-10-21T21:33:32.450Z,16.69
2022-10-21T21:36:01.083Z,16.49
2022-10-21T21:38:29.492Z,16.57
2022-10-21T21:40:57.968Z,16.69
2022-10-21T21:43:26.206Z,16.85
2022-10-21T21:45:55.500Z,16.82
2022-10-21T21:48:23.441Z,17.07
2022-10-21T21:50:51.735Z,17.23
2022-10-21T21:53:24.861Z,17.05
2022-10-21T21:55:52.554Z,16.78
2022-10-21T21:58:20.247Z,16.85
2022-10-21T22:00:47.960Z,16.77
2022-10-21T22:03:17.022Z,16.83
2022-10-21T22:05:44.941Z,17.21
2022-10-21T22:08:12.677Z,17.30
2022-10-21T22:10:40.387Z,17.67
2022-10-21T22:13:08.118Z,17.35
2022-10-21T22:15:47.493Z,16.80
2022-10-21T22:18:17.352Z,16.76
2022-10-21T22:20:46.231Z,16.75
2022-10-21T22:23:14.116Z,16.56
2022-10-21T22:25:41.779Z,16.40
2022-10-21T22:28:09.493Z,16.35
2022-10-21T22:30:37.201Z,16.55
2022-10-21T22:33:05.057Z,16.47
2022-10-21T22:35:34.105Z,15.93
2022-10-21T22:38:01.794Z,15.89
2022-10-21T22:40:29.474Z,15.99
2022-10-21T22:42:57.173Z,15.70
2022-10-21T22:45:24.979Z,15.73
2022-10-21T22:47:52.666Z,16.48
2022-10-21T22:50:20.346Z,16.39
2022-10-21T22:52:49.415Z,16.44
2022-10-21T22:55:17.169Z,16.57
2022-10-21T22:57:44.881Z,16.61
2022-10-21T23:00:13.936Z,16.95
2022-10-21T23:02:41.970Z,17.26
2022-10-21T23:05:10.537Z,17.06
2022-10-21T23:07:38.287Z,17.05
2022-10-21T23:10:08.758Z,17.31
2022-10-21T23:12:37.629Z,17.30
2022-10-21T23:15:06.567Z,17.35
2022-10-21T23:17:34.616Z,17.05
2022-10-21T23:20:02.319Z,16.87
2022-10-21T23:22:30.037Z,16.83
2022-10-21T23:24:57.745Z,17.01
2022-10-21T23:27:27.998Z,17.01
2022-10-21T23:29:55.754Z,16.74
2022-10-21T23:32:23.508Z,16.93
2022-10-21T23:34:51.212Z,17.29
2022-10-21T23:39:51.557Z,17.07
2022-10-21T23:42:19.268Z,16.87
2022-10-21T23:44:48.305Z,16.88
2022-10-21T23:47:16.060Z,16.90
2022-10-21T23:49:43.794Z,16.48
2022-10-21T23:52:11.533Z,16.41
2022-10-21T23:54:39.236Z,16.66
2022-10-21T23:57:06.969Z,16.08
2022-10-21T23:59:35.189Z,15.99
